sensor_id;sensor_type;location;lat;lon;timestamp;temperature;humidity
1021;DHT22;499;42.648;23.270;2023-05-07T00:00:56;9.90;63.20
1021;DHT22;499;42.648;23.270;2023-05-07T00:03:26;9.90;65.30
1021;DHT22;499;42.648;23.270;2023-05-07T00:05:53;9.90;66.70
1021;DHT22;499;42.648;23.270;2023-05-07T00:08:20;9.80;70.20
1021;DHT22;499;42.648;23.270;2023-05-07T00:10:47;9.70;73.80
1021;DHT22;499;42.648;23.270;2023-05-07T00:13:14;9.70;74.50
1021;DHT22;499;42.648;23.270;2023-05-07T00:15:42;9.70;72.90
1021;DHT22;499;42.648;23.270;2023-05-07T00:18:09;9.70;73.50
1021;DHT22;499;42.648;23.270;2023-05-07T00:20:37;9.70;70.50
1021;DHT22;499;42.648;23.270;2023-05-07T00:23:04;9.60;73.70
1021;DHT22;499;42.648;23.270;2023-05-07T00:25:32;9.50;73.30
1021;DHT22;499;42.648;23.270;2023-05-07T00:27:59;9.50;76.40
1021;DHT22;499;42.648;23.270;2023-05-07T00:30:29;9.50;75.00
1021;DHT22;499;42.648;23.270;2023-05-07T00:32:56;9.60;75.00
1021;DHT22;499;42.648;23.270;2023-05-07T00:35:23;9.60;71.20
1021;DHT22;499;42.648;23.270;2023-05-07T00:37:52;9.50;71.10
1021;DHT22;499;42.648;23.270;2023-05-07T00:40:19;9.40;71.60
1021;DHT22;499;42.648;23.270;2023-05-07T00:42:46;9.30;71.40
1021;DHT22;499;42.648;23.270;2023-05-07T00:45:14;9.30;73.20
1021;DHT22;499;42.648;23.270;2023-05-07T00:47:42;9.20;71.80
1021;DHT22;499;42.648;23.270;2023-05-07T00:50:10;9.10;73.30
1021;DHT22;499;42.648;23.270;2023-05-07T00:52:38;9.10;73.90
1021;DHT22;499;42.648;23.270;2023-05-07T00:55:07;9.10;73.90
1021;DHT22;499;42.648;23.270;2023-05-07T00:57:36;9.00;73.30
1021;DHT22;499;42.648;23.270;2023-05-07T01:00:05;9.00;74.90
1021;DHT22;499;42.648;23.270;2023-05-07T01:02:34;9.00;75.90
1021;DHT22;499;42.648;23.270;2023-05-07T01:05:02;9.00;77.10
1021;DHT22;499;42.648;23.270;2023-05-07T01:07:30;8.90;76.20
1021;DHT22;499;42.648;23.270;2023-05-07T01:09:58;8.90;77.80
1021;DHT22;499;42.648;23.270;2023-05-07T01:12:27;8.90;77.10
1021;DHT22;499;42.648;23.270;2023-05-07T01:14:55;9.00;76.40
1021;DHT22;499;42.648;23.270;2023-05-07T01:17:22;9.00;74.40
1021;DHT22;499;42.648;23.270;2023-05-07T01:19:49;8.90;75.60
1021;DHT22;499;42.648;23.270;2023-05-07T01:22:28;8.90;77.30
1021;DHT22;499;42.648;23.270;2023-05-07T01:24:57;8.80;77.70
1021;DHT22;499;42.648;23.270;2023-05-07T01:27:25;8.70;79.10
1021;DHT22;499;42.648;23.270;2023-05-07T01:29:52;8.70;81.70
1021;DHT22;499;42.648;23.270;2023-05-07T01:32:23;8.70;82.30
1021;DHT22;499;42.648;23.270;2023-05-07T01:34:54;8.60;82.90
1021;DHT22;499;42.648;23.270;2023-05-07T01:37:24;8.60;83.80
1021;DHT22;499;42.648;23.270;2023-05-07T01:39:52;8.60;83.80
1021;DHT22;499;42.648;23.270;2023-05-07T01:42:19;8.60;85.30
1021;DHT22;499;42.648;23.270;2023-05-07T01:44:47;8.50;86.60
1021;DHT22;499;42.648;23.270;2023-05-07T01:47:14;8.50;86.60
1021;DHT22;499;42.648;23.270;2023-05-07T01:49:42;8.40;88.60
1021;DHT22;499;42.648;23.270;2023-05-07T01:52:10;8.40;90.20
1021;DHT22;499;42.648;23.270;2023-05-07T01:54:39;8.50;90.00
1021;DHT22;499;42.648;23.270;2023-05-07T01:57:06;8.50;89.90
1021;DHT22;499;42.648;23.270;2023-05-07T01:59:33;8.40;88.50
1021;DHT22;499;42.648;23.270;2023-05-07T02:02:00;8.30;88.90
1021;DHT22;499;42.648;23.270;2023-05-07T02:04:27;8.30;88.70
1021;DHT22;499;42.648;23.270;2023-05-07T02:06:54;8.30;87.90
1021;DHT22;499;42.648;23.270;2023-05-07T02:09:21;8.30;88.00
1021;DHT22;499;42.648;23.270;2023-05-07T02:11:50;8.30;89.10
1021;DHT22;499;42.648;23.270;2023-05-07T02:14:17;8.20;89.10
1021;DHT22;499;42.648;23.270;2023-05-07T02:16:45;8.20;88.50
1021;DHT22;499;42.648;23.270;2023-05-07T02:19:12;8.20;88.30
1021;DHT22;499;42.648;23.270;2023-05-07T02:21:40;8.20;89.10
1021;DHT22;499;42.648;23.270;2023-05-07T02:24:07;8.10;87.60
1021;DHT22;499;42.648;23.270;2023-05-07T02:26:34;8.20;88.10
1021;DHT22;499;42.648;23.270;2023-05-07T02:29:02;8.20;87.40
1021;DHT22;499;42.648;23.270;2023-05-07T02:31:29;8.20;86.40
1021;DHT22;499;42.648;23.270;2023-05-07T02:33:56;8.10;85.10
1021;DHT22;499;42.648;23.270;2023-05-07T02:36:23;8.10;85.60
1021;DHT22;499;42.648;23.270;2023-05-07T02:38:50;8.10;87.20
1021;DHT22;499;42.648;23.270;2023-05-07T02:41:17;8.00;86.20
1021;DHT22;499;42.648;23.270;2023-05-07T02:43:44;8.00;86.20
1021;DHT22;499;42.648;23.270;2023-05-07T02:46:12;7.90;86.30
1021;DHT22;499;42.648;23.270;2023-05-07T02:48:39;7.90;89.10
1021;DHT22;499;42.648;23.270;2023-05-07T02:51:06;8.00;87.90
1021;DHT22;499;42.648;23.270;2023-05-07T02:53:33;7.90;88.60
1021;DHT22;499;42.648;23.270;2023-05-07T02:56:01;7.90;90.10
1021;DHT22;499;42.648;23.270;2023-05-07T02:58:28;7.80;89.60
1021;DHT22;499;42.648;23.270;2023-05-07T03:00:55;7.80;90.20
1021;DHT22;499;42.648;23.270;2023-05-07T03:03:23;7.80;91.10
1021;DHT22;499;42.648;23.270;2023-05-07T03:05:50;7.70;90.80
1021;DHT22;499;42.648;23.270;2023-05-07T03:08:17;7.80;91.20
1021;DHT22;499;42.648;23.270;2023-05-07T03:10:44;7.70;91.70
1021;DHT22;499;42.648;23.270;2023-05-07T03:13:11;7.70;92.20
1021;DHT22;499;42.648;23.270;2023-05-07T03:15:38;7.70;93.20
1021;DHT22;499;42.648;23.270;2023-05-07T03:18:05;7.70;93.40
1021;DHT22;499;42.648;23.270;2023-05-07T03:20:34;7.70;93.40
1021;DHT22;499;42.648;23.270;2023-05-07T03:23:02;7.70;94.00
1021;DHT22;499;42.648;23.270;2023-05-07T03:25:29;7.70;94.20
1021;DHT22;499;42.648;23.270;2023-05-07T03:27:56;7.70;94.70
1021;DHT22;499;42.648;23.270;2023-05-07T03:30:23;7.70;94.90
1021;DHT22;499;42.648;23.270;2023-05-07T03:32:50;7.70;95.60
1021;DHT22;499;42.648;23.270;2023-05-07T03:35:18;7.70;96.10
1021;DHT22;499;42.648;23.270;2023-05-07T03:37:46;7.80;96.60
1021;DHT22;499;42.648;23.270;2023-05-07T03:40:13;7.80;96.60
1021;DHT22;499;42.648;23.270;2023-05-07T03:42:40;7.90;97.40
1021;DHT22;499;42.648;23.270;2023-05-07T03:45:08;8.10;96.70
1021;DHT22;499;42.648;23.270;2023-05-07T03:47:35;8.30;96.40
1021;DHT22;499;42.648;23.270;2023-05-07T03:50:02;8.50;94.70
1021;DHT22;499;42.648;23.270;2023-05-07T03:52:30;8.60;93.10
1021;DHT22;499;42.648;23.270;2023-05-07T03:54:58;8.60;91.80
1021;DHT22;499;42.648;23.270;2023-05-07T03:57:25;8.70;92.60
1021;DHT22;499;42.648;23.270;2023-05-07T03:59:52;8.90;92.60
1021;DHT22;499;42.648;23.270;2023-05-07T04:02:19;9.00;91.90
1021;DHT22;499;42.648;23.270;2023-05-07T04:04:48;9.20;91.40
1021;DHT22;499;42.648;23.270;2023-05-07T04:07:15;9.30;89.30
1021;DHT22;499;42.648;23.270;2023-05-07T04:09:42;9.30;87.40
1021;DHT22;499;42.648;23.270;2023-05-07T04:12:11;9.50;87.60
1021;DHT22;499;42.648;23.270;2023-05-07T04:14:37;9.80;79.60
1021;DHT22;499;42.648;23.270;2023-05-07T04:17:04;9.70;75.50
1021;DHT22;499;42.648;23.270;2023-05-07T04:19:33;10.10;73.20
1021;DHT22;499;42.648;23.270;2023-05-07T04:22:00;10.20;68.50
1021;DHT22;499;42.648;23.270;2023-05-07T04:24:30;10.30;68.60
1021;DHT22;499;42.648;23.270;2023-05-07T04:26:57;10.40;66.90
1021;DHT22;499;42.648;23.270;2023-05-07T04:29:26;10.50;62.00
1021;DHT22;499;42.648;23.270;2023-05-07T04:31:54;10.60;58.50
1021;DHT22;499;42.648;23.270;2023-05-07T04:34:22;10.70;57.80
1021;DHT22;499;42.648;23.270;2023-05-07T04:36:49;10.70;56.80
1021;DHT22;499;42.648;23.270;2023-05-07T04:39:16;10.60;57.60
1021;DHT22;499;42.648;23.270;2023-05-07T04:41:43;10.60;59.20
1021;DHT22;499;42.648;23.270;2023-05-07T04:44:10;10.70;58.10
1021;DHT22;499;42.648;23.270;2023-05-07T04:46:39;10.80;59.30
1021;DHT22;499;42.648;23.270;2023-05-07T04:49:06;10.80;56.90
1021;DHT22;499;42.648;23.270;2023-05-07T04:51:33;10.70;57.80
1021;DHT22;499;42.648;23.270;2023-05-07T04:54:00;10.60;56.70
1021;DHT22;499;42.648;23.270;2023-05-07T04:56:28;10.70;58.30
1021;DHT22;499;42.648;23.270;2023-05-07T04:58:55;10.80;56.30
1021;DHT22;499;42.648;23.270;2023-05-07T05:01:22;11.00;55.90
1021;DHT22;499;42.648;23.270;2023-05-07T05:03:50;11.20;52.80
1021;DHT22;499;42.648;23.270;2023-05-07T05:06:17;11.20;53.40
1021;DHT22;499;42.648;23.270;2023-05-07T05:08:44;11.30;52.50
1021;DHT22;499;42.648;23.270;2023-05-07T05:11:11;11.30;53.40
1021;DHT22;499;42.648;23.270;2023-05-07T05:13:38;11.40;52.00
1021;DHT22;499;42.648;23.270;2023-05-07T05:16:05;11.50;51.20
1021;DHT22;499;42.648;23.270;2023-05-07T05:18:32;11.60;51.10
1021;DHT22;499;42.648;23.270;2023-05-07T05:21:01;11.70;48.60
1021;DHT22;499;42.648;23.270;2023-05-07T05:23:28;11.80;46.90
1021;DHT22;499;42.648;23.270;2023-05-07T05:25:56;11.80;46.90
1021;DHT22;499;42.648;23.270;2023-05-07T05:28:23;11.80;48.40
1021;DHT22;499;42.648;23.270;2023-05-07T05:30:50;11.90;47.20
1021;DHT22;499;42.648;23.270;2023-05-07T05:33:17;12.00;46.00
1021;DHT22;499;42.648;23.270;2023-05-07T05:35:45;12.10;45.70
1021;DHT22;499;42.648;23.270;2023-05-07T05:38:13;12.20;45.10
1021;DHT22;499;42.648;23.270;2023-05-07T05:40:40;12.30;43.70
1021;DHT22;499;42.648;23.270;2023-05-07T05:43:07;12.30;43.30
1021;DHT22;499;42.648;23.270;2023-05-07T05:45:34;12.20;42.70
1021;DHT22;499;42.648;23.270;2023-05-07T05:48:01;12.40;43.90
1021;DHT22;499;42.648;23.270;2023-05-07T05:50:28;12.50;43.70
1021;DHT22;499;42.648;23.270;2023-05-07T05:52:55;12.80;44.60
1021;DHT22;499;42.648;23.270;2023-05-07T05:55:24;12.80;41.80
1021;DHT22;499;42.648;23.270;2023-05-07T05:57:51;13.00;40.60
1021;DHT22;499;42.648;23.270;2023-05-07T06:00:18;13.00;40.20
1021;DHT22;499;42.648;23.270;2023-05-07T06:02:48;12.90;38.80
1021;DHT22;499;42.648;23.270;2023-05-07T06:05:15;13.00;39.10
1021;DHT22;499;42.648;23.270;2023-05-07T06:07:42;13.20;39.90
1021;DHT22;499;42.648;23.270;2023-05-07T06:10:09;13.20;38.50
1021;DHT22;499;42.648;23.270;2023-05-07T06:12:38;13.20;39.20
1021;DHT22;499;42.648;23.270;2023-05-07T06:15:06;13.30;39.50
1021;DHT22;499;42.648;23.270;2023-05-07T06:17:33;13.50;40.40
1021;DHT22;499;42.648;23.270;2023-05-07T06:20:00;13.70;39.00
1021;DHT22;499;42.648;23.270;2023-05-07T06:22:27;13.80;36.10
1021;DHT22;499;42.648;23.270;2023-05-07T06:24:54;13.80;36.50
1021;DHT22;499;42.648;23.270;2023-05-07T06:27:21;13.90;36.60
1021;DHT22;499;42.648;23.270;2023-05-07T06:29:50;13.90;35.10
1021;DHT22;499;42.648;23.270;2023-05-07T06:32:17;13.80;35.10
1021;DHT22;499;42.648;23.270;2023-05-07T06:34:44;14.00;37.20
1021;DHT22;499;42.648;23.270;2023-05-07T06:37:12;14.20;34.70
1021;DHT22;499;42.648;23.270;2023-05-07T06:39:39;14.10;34.50
1021;DHT22;499;42.648;23.270;2023-05-07T06:42:06;14.20;34.60
1021;DHT22;499;42.648;23.270;2023-05-07T06:44:32;14.20;33.90
1021;DHT22;499;42.648;23.270;2023-05-07T06:47:01;14.30;33.20
1021;DHT22;499;42.648;23.270;2023-05-07T06:49:28;14.40;34.00
1021;DHT22;499;42.648;23.270;2023-05-07T06:51:55;14.60;33.20
1021;DHT22;499;42.648;23.270;2023-05-07T06:54:22;14.70;33.00
1021;DHT22;499;42.648;23.270;2023-05-07T06:56:49;14.80;32.40
1021;DHT22;499;42.648;23.270;2023-05-07T06:59:16;14.80;31.80
1021;DHT22;499;42.648;23.270;2023-05-07T07:01:44;14.70;31.00
1021;DHT22;499;42.648;23.270;2023-05-07T07:04:13;14.90;33.30
1021;DHT22;499;42.648;23.270;2023-05-07T07:06:40;15.00;30.40
1021;DHT22;499;42.648;23.270;2023-05-07T07:09:07;15.00;30.50
1021;DHT22;499;42.648;23.270;2023-05-07T07:11:34;15.00;29.30
1021;DHT22;499;42.648;23.270;2023-05-07T07:14:01;14.90;30.30
1021;DHT22;499;42.648;23.270;2023-05-07T07:16:28;15.20;30.90
1021;DHT22;499;42.648;23.270;2023-05-07T07:18:55;15.40;28.90
1021;DHT22;499;42.648;23.270;2023-05-07T07:21:24;15.50;29.80
1021;DHT22;499;42.648;23.270;2023-05-07T07:23:51;15.70;27.90
1021;DHT22;499;42.648;23.270;2023-05-07T07:26:18;15.70;28.20
1021;DHT22;499;42.648;23.270;2023-05-07T07:28:45;15.80;26.50
1021;DHT22;499;42.648;23.270;2023-05-07T07:31:12;15.90;26.50
1021;DHT22;499;42.648;23.270;2023-05-07T07:33:39;16.10;27.40
1021;DHT22;499;42.648;23.270;2023-05-07T07:36:07;16.20;26.20
1021;DHT22;499;42.648;23.270;2023-05-07T07:38:35;16.30;24.20
1021;DHT22;499;42.648;23.270;2023-05-07T07:41:02;16.30;24.60
1021;DHT22;499;42.648;23.270;2023-05-07T07:43:29;16.30;24.70
1021;DHT22;499;42.648;23.270;2023-05-07T07:45:56;16.30;23.70
1021;DHT22;499;42.648;23.270;2023-05-07T07:48:23;16.40;23.70
1021;DHT22;499;42.648;23.270;2023-05-07T07:50:51;16.40;23.70
1021;DHT22;499;42.648;23.270;2023-05-07T07:53:18;16.40;23.70
1021;DHT22;499;42.648;23.270;2023-05-07T07:55:46;16.60;23.90
1021;DHT22;499;42.648;23.270;2023-05-07T07:58:13;16.80;22.80
1021;DHT22;499;42.648;23.270;2023-05-07T08:00:40;16.90;22.50
1021;DHT22;499;42.648;23.270;2023-05-07T08:03:09;16.80;22.10
1021;DHT22;499;42.648;23.270;2023-05-07T08:05:36;16.80;22.40
1021;DHT22;499;42.648;23.270;2023-05-07T08:08:04;16.90;21.70
1021;DHT22;499;42.648;23.270;2023-05-07T08:10:32;16.90;21.90
1021;DHT22;499;42.648;23.270;2023-05-07T08:13:01;17.00;21.50
1021;DHT22;499;42.648;23.270;2023-05-07T08:15:29;16.90;21.30
1021;DHT22;499;42.648;23.270;2023-05-07T08:17:56;16.90;20.10
1021;DHT22;499;42.648;23.270;2023-05-07T08:20:25;16.90;21.30
1021;DHT22;499;42.648;23.270;2023-05-07T08:22:52;17.10;20.20
1021;DHT22;499;42.648;23.270;2023-05-07T08:25:19;17.30;20.00
1021;DHT22;499;42.648;23.270;2023-05-07T08:27:46;17.30;20.40
1021;DHT22;499;42.648;23.270;2023-05-07T08:30:15;17.50;20.50
1021;DHT22;499;42.648;23.270;2023-05-07T08:32:42;17.60;20.60
1021;DHT22;499;42.648;23.270;2023-05-07T08:35:09;17.90;20.40
1021;DHT22;499;42.648;23.270;2023-05-07T08:37:36;18.00;20.10
1021;DHT22;499;42.648;23.270;2023-05-07T08:40:04;18.00;18.30
1021;DHT22;499;42.648;23.270;2023-05-07T08:42:35;18.10;18.60
1021;DHT22;499;42.648;23.270;2023-05-07T08:45:03;18.00;18.70
1021;DHT22;499;42.648;23.270;2023-05-07T08:47:40;18.00;18.60
1021;DHT22;499;42.648;23.270;2023-05-07T08:50:09;18.00;18.00
1021;DHT22;499;42.648;23.270;2023-05-07T08:52:37;18.10;18.80
1021;DHT22;499;42.648;23.270;2023-05-07T08:55:05;18.10;19.30
1021;DHT22;499;42.648;23.270;2023-05-07T08:57:33;18.20;18.60
1021;DHT22;499;42.648;23.270;2023-05-07T09:00:00;18.20;18.20
1021;DHT22;499;42.648;23.270;2023-05-07T09:02:27;18.30;18.60
1021;DHT22;499;42.648;23.270;2023-05-07T09:04:55;18.30;19.00
1021;DHT22;499;42.648;23.270;2023-05-07T09:07:22;18.30;18.00
1021;DHT22;499;42.648;23.270;2023-05-07T09:09:49;18.30;18.40
1021;DHT22;499;42.648;23.270;2023-05-07T09:12:17;18.30;18.10
1021;DHT22;499;42.648;23.270;2023-05-07T09:14:45;18.50;17.20
1021;DHT22;499;42.648;23.270;2023-05-07T09:17:12;18.70;18.20
1021;DHT22;499;42.648;23.270;2023-05-07T09:19:39;19.00;18.90
1021;DHT22;499;42.648;23.270;2023-05-07T09:22:08;19.20;17.70
1021;DHT22;499;42.648;23.270;2023-05-07T09:24:35;19.40;15.20
1021;DHT22;499;42.648;23.270;2023-05-07T09:27:04;19.10;16.20
1021;DHT22;499;42.648;23.270;2023-05-07T09:29:31;19.30;17.60
1021;DHT22;499;42.648;23.270;2023-05-07T09:32:01;19.40;16.00
1021;DHT22;499;42.648;23.270;2023-05-07T09:34:29;19.50;15.40
1021;DHT22;499;42.648;23.270;2023-05-07T09:36:56;19.60;15.50
1021;DHT22;499;42.648;23.270;2023-05-07T09:39:25;19.70;14.10
1021;DHT22;499;42.648;23.270;2023-05-07T09:41:52;19.90;14.10
1021;DHT22;499;42.648;23.270;2023-05-07T09:44:20;20.00;13.10
1021;DHT22;499;42.648;23.270;2023-05-07T09:46:53;19.80;12.90
1021;DHT22;499;42.648;23.270;2023-05-07T09:49:22;19.50;12.80
1021;DHT22;499;42.648;23.270;2023-05-07T09:51:51;19.30;13.60
1021;DHT22;499;42.648;23.270;2023-05-07T09:54:18;19.60;14.30
1021;DHT22;499;42.648;23.270;2023-05-07T09:56:48;19.90;12.80
1021;DHT22;499;42.648;23.270;2023-05-07T09:59:16;19.60;11.70
1021;DHT22;499;42.648;23.270;2023-05-07T10:01:44;19.80;12.40
1021;DHT22;499;42.648;23.270;2023-05-07T10:04:12;20.20;13.30
1021;DHT22;499;42.648;23.270;2023-05-07T10:06:39;20.00;11.90
1021;DHT22;499;42.648;23.270;2023-05-07T10:09:07;20.10;12.60
1021;DHT22;499;42.648;23.270;2023-05-07T10:11:35;20.30;11.70
1021;DHT22;499;42.648;23.270;2023-05-07T10:14:04;20.10;11.20
1021;DHT22;499;42.648;23.270;2023-05-07T10:16:33;20.10;11.10
1021;DHT22;499;42.648;23.270;2023-05-07T10:19:02;20.10;10.80
1021;DHT22;499;42.648;23.270;2023-05-07T10:21:30;20.10;10.70
1021;DHT22;499;42.648;23.270;2023-05-07T10:24:00;19.80;10.70
1021;DHT22;499;42.648;23.270;2023-05-07T10:26:32;20.00;11.40
1021;DHT22;499;42.648;23.270;2023-05-07T10:29:04;20.00;11.60
1021;DHT22;499;42.648;23.270;2023-05-07T10:31:54;20.20;11.10
1021;DHT22;499;42.648;23.270;2023-05-07T10:34:24;20.30;10.20
1021;DHT22;499;42.648;23.270;2023-05-07T10:36:54;20.30;10.20
1021;DHT22;499;42.648;23.270;2023-05-07T10:39:21;20.40;10.30
1021;DHT22;499;42.648;23.270;2023-05-07T10:41:49;20.20;10.10
1021;DHT22;499;42.648;23.270;2023-05-07T10:44:26;20.30;10.20
1021;DHT22;499;42.648;23.270;2023-05-07T10:47:05;20.20;10.10
1021;DHT22;499;42.648;23.270;2023-05-07T10:49:35;20.50;10.40
1021;DHT22;499;42.648;23.270;2023-05-07T10:52:11;20.60;10.40
1021;DHT22;499;42.648;23.270;2023-05-07T10:54:39;20.80;11.50
1021;DHT22;499;42.648;23.270;2023-05-07T10:57:32;20.90;10.60
1021;DHT22;499;42.648;23.270;2023-05-07T11:00:00;21.20;12.30
1021;DHT22;499;42.648;23.270;2023-05-07T11:05:29;21.20;10.60
1021;DHT22;499;42.648;23.270;2023-05-07T11:07:57;21.10;9.80
1021;DHT22;499;42.648;23.270;2023-05-07T11:10:49;21.00;10.70
1021;DHT22;499;42.648;23.270;2023-05-07T11:13:17;21.10;10.70
1021;DHT22;499;42.648;23.270;2023-05-07T11:15:46;21.00;9.40
1021;DHT22;499;42.648;23.270;2023-05-07T11:18:14;21.10;9.50
1021;DHT22;499;42.648;23.270;2023-05-07T11:20:49;21.10;8.10
1021;DHT22;499;42.648;23.270;2023-05-07T11:23:57;20.90;8.20
1021;DHT22;499;42.648;23.270;2023-05-07T11:26:25;20.90;10.30
1021;DHT22;499;42.648;23.270;2023-05-07T11:28:53;20.90;10.00
1021;DHT22;499;42.648;23.270;2023-05-07T11:31:24;20.90;10.60
1021;DHT22;499;42.648;23.270;2023-05-07T11:33:52;21.00;8.50
1021;DHT22;499;42.648;23.270;2023-05-07T11:36:19;21.00;8.10
1021;DHT22;499;42.648;23.270;2023-05-07T11:38:47;20.70;8.50
1021;DHT22;499;42.648;23.270;2023-05-07T11:41:15;20.70;9.20
1021;DHT22;499;42.648;23.270;2023-05-07T11:43:56;20.60;8.80
1021;DHT22;499;42.648;23.270;2023-05-07T11:46:24;20.80;10.50
1021;DHT22;499;42.648;23.270;2023-05-07T11:48:51;21.10;8.10
1021;DHT22;499;42.648;23.270;2023-05-07T11:51:19;21.10;7.90
1021;DHT22;499;42.648;23.270;2023-05-07T11:53:47;21.20;7.30
1021;DHT22;499;42.648;23.270;2023-05-07T11:56:16;21.20;6.60
1021;DHT22;499;42.648;23.270;2023-05-07T11:58:44;21.20;7.30
1021;DHT22;499;42.648;23.270;2023-05-07T12:01:12;21.30;9.10
1021;DHT22;499;42.648;23.270;2023-05-07T12:03:43;21.40;7.80
1021;DHT22;499;42.648;23.270;2023-05-07T12:06:11;21.40;6.80
1021;DHT22;499;42.648;23.270;2023-05-07T12:08:40;21.40;8.70
1021;DHT22;499;42.648;23.270;2023-05-07T12:11:08;21.50;9.30
1021;DHT22;499;42.648;23.270;2023-05-07T12:13:37;21.60;7.50
1021;DHT22;499;42.648;23.270;2023-05-07T12:16:05;21.70;7.90
1021;DHT22;499;42.648;23.270;2023-05-07T12:18:34;21.70;6.50
1021;DHT22;499;42.648;23.270;2023-05-07T12:21:04;21.50;6.80
1021;DHT22;499;42.648;23.270;2023-05-07T12:23:33;21.60;6.30
1021;DHT22;499;42.648;23.270;2023-05-07T12:26:01;21.70;6.50
1021;DHT22;499;42.648;23.270;2023-05-07T12:28:28;21.60;6.00
1021;DHT22;499;42.648;23.270;2023-05-07T12:30:56;21.50;7.30
1021;DHT22;499;42.648;23.270;2023-05-07T12:33:24;21.60;5.80
1021;DHT22;499;42.648;23.270;2023-05-07T12:35:54;21.70;6.00
1021;DHT22;499;42.648;23.270;2023-05-07T12:38:23;21.80;6.10
1021;DHT22;499;42.648;23.270;2023-05-07T12:40:53;21.70;5.10
1021;DHT22;499;42.648;23.270;2023-05-07T12:43:21;21.80;5.40
1021;DHT22;499;42.648;23.270;2023-05-07T12:45:51;21.80;6.50
1021;DHT22;499;42.648;23.270;2023-05-07T12:48:20;21.80;6.20
1021;DHT22;499;42.648;23.270;2023-05-07T12:50:49;22.10;6.60
1021;DHT22;499;42.648;23.270;2023-05-07T12:53:16;22.10;4.90
1021;DHT22;499;42.648;23.270;2023-05-07T12:55:46;22.30;5.40
1021;DHT22;499;42.648;23.270;2023-05-07T12:58:17;22.50;5.00
1021;DHT22;499;42.648;23.270;2023-05-07T13:00:46;22.60;4.40
1021;DHT22;499;42.648;23.270;2023-05-07T13:03:21;22.40;3.80
1021;DHT22;499;42.648;23.270;2023-05-07T13:05:48;22.40;4.80
1021;DHT22;499;42.648;23.270;2023-05-07T13:08:24;22.40;5.00
1021;DHT22;499;42.648;23.270;2023-05-07T13:10:52;22.50;5.40
1021;DHT22;499;42.648;23.270;2023-05-07T13:13:20;22.40;5.20
1021;DHT22;499;42.648;23.270;2023-05-07T13:15:47;22.50;4.60
1021;DHT22;499;42.648;23.270;2023-05-07T13:18:14;22.50;3.60
1021;DHT22;499;42.648;23.270;2023-05-07T13:20:41;22.40;3.20
1021;DHT22;499;42.648;23.270;2023-05-07T13:23:08;22.10;4.70
1021;DHT22;499;42.648;23.270;2023-05-07T13:25:35;22.20;4.30
1021;DHT22;499;42.648;23.270;2023-05-07T13:28:03;22.40;5.80
1021;DHT22;499;42.648;23.270;2023-05-07T13:30:30;22.60;5.20
1021;DHT22;499;42.648;23.270;2023-05-07T13:32:57;22.40;3.60
1021;DHT22;499;42.648;23.270;2023-05-07T13:35:24;22.50;3.80
1021;DHT22;499;42.648;23.270;2023-05-07T13:37:51;22.50;4.10
1021;DHT22;499;42.648;23.270;2023-05-07T13:40:20;22.60;4.80
1021;DHT22;499;42.648;23.270;2023-05-07T13:42:47;22.60;3.50
1021;DHT22;499;42.648;23.270;2023-05-07T13:45:15;22.70;4.50
1021;DHT22;499;42.648;23.270;2023-05-07T13:47:43;22.80;4.60
1021;DHT22;499;42.648;23.270;2023-05-07T13:50:11;22.80;3.40
1021;DHT22;499;42.648;23.270;2023-05-07T13:52:40;22.60;3.30
1021;DHT22;499;42.648;23.270;2023-05-07T13:55:08;22.50;4.50
1021;DHT22;499;42.648;23.270;2023-05-07T13:57:36;22.50;3.70
1021;DHT22;499;42.648;23.270;2023-05-07T14:00:04;22.40;3.70
1021;DHT22;499;42.648;23.270;2023-05-07T14:02:33;22.30;4.00
1021;DHT22;499;42.648;23.270;2023-05-07T14:05:00;22.20;5.10
1021;DHT22;499;42.648;23.270;2023-05-07T14:07:27;22.00;4.80
1021;DHT22;499;42.648;23.270;2023-05-07T14:09:54;22.30;4.40
1021;DHT22;499;42.648;23.270;2023-05-07T14:12:21;22.50;4.40
1021;DHT22;499;42.648;23.270;2023-05-07T14:14:48;22.50;5.50
1021;DHT22;499;42.648;23.270;2023-05-07T14:17:15;22.50;4.10
1021;DHT22;499;42.648;23.270;2023-05-07T14:19:44;22.60;4.80
1021;DHT22;499;42.648;23.270;2023-05-07T14:22:12;22.60;4.60
1021;DHT22;499;42.648;23.270;2023-05-07T14:24:39;22.50;4.30
1021;DHT22;499;42.648;23.270;2023-05-07T14:27:06;22.60;4.70
1021;DHT22;499;42.648;23.270;2023-05-07T14:29:33;22.60;3.30
1021;DHT22;499;42.648;23.270;2023-05-07T14:32:01;22.60;3.30
1021;DHT22;499;42.648;23.270;2023-05-07T14:34:29;22.60;4.30
1021;DHT22;499;42.648;23.270;2023-05-07T14:36:57;22.60;4.10
1021;DHT22;499;42.648;23.270;2023-05-07T14:39:24;22.90;3.50
1021;DHT22;499;42.648;23.270;2023-05-07T14:41:51;23.10;5.30
1021;DHT22;499;42.648;23.270;2023-05-07T14:44:20;23.30;3.70
1021;DHT22;499;42.648;23.270;2023-05-07T14:46:47;23.30;3.80
1021;DHT22;499;42.648;23.270;2023-05-07T14:49:14;23.30;3.80
1021;DHT22;499;42.648;23.270;2023-05-07T14:51:43;23.30;4.10
1021;DHT22;499;42.648;23.270;2023-05-07T14:54:12;23.50;3.90
1021;DHT22;499;42.648;23.270;2023-05-07T14:56:40;23.70;4.00
1021;DHT22;499;42.648;23.270;2023-05-07T14:59:08;23.60;4.00
1021;DHT22;499;42.648;23.270;2023-05-07T15:01:35;23.70;3.30
1021;DHT22;499;42.648;23.270;2023-05-07T15:04:03;23.60;3.60
1021;DHT22;499;42.648;23.270;2023-05-07T15:06:30;23.30;4.30
1021;DHT22;499;42.648;23.270;2023-05-07T15:08:57;23.10;3.60
1021;DHT22;499;42.648;23.270;2023-05-07T15:11:26;23.20;3.70
1021;DHT22;499;42.648;23.270;2023-05-07T15:13:53;23.50;3.90
1021;DHT22;499;42.648;23.270;2023-05-07T15:16:20;24.20;4.30
1021;DHT22;499;42.648;23.270;2023-05-07T15:18:48;24.60;2.30
1021;DHT22;499;42.648;23.270;2023-05-07T15:21:16;24.90;2.40
1021;DHT22;499;42.648;23.270;2023-05-07T15:23:43;25.50;1.40
1021;DHT22;499;42.648;23.270;2023-05-07T15:26:11;25.00;1.80
1021;DHT22;499;42.648;23.270;2023-05-07T15:28:39;25.10;2.10
1021;DHT22;499;42.648;23.270;2023-05-07T15:31:06;25.10;1.70
1021;DHT22;499;42.648;23.270;2023-05-07T15:33:34;25.10;1.60
1021;DHT22;499;42.648;23.270;2023-05-07T15:36:01;25.10;2.20
1021;DHT22;499;42.648;23.270;2023-05-07T15:38:28;25.20;1.40
1021;DHT22;499;42.648;23.270;2023-05-07T15:40:55;25.60;1.60
1021;DHT22;499;42.648;23.270;2023-05-07T15:43:22;25.50;1.60
1021;DHT22;499;42.648;23.270;2023-05-07T15:45:51;25.20;2.20
1021;DHT22;499;42.648;23.270;2023-05-07T15:48:19;25.10;2.20
1021;DHT22;499;42.648;23.270;2023-05-07T15:50:46;25.00;1.70
1021;DHT22;499;42.648;23.270;2023-05-07T15:53:13;25.20;1.60
1021;DHT22;499;42.648;23.270;2023-05-07T15:55:40;25.20;1.90
1021;DHT22;499;42.648;23.270;2023-05-07T15:58:08;25.10;1.60
1021;DHT22;499;42.648;23.270;2023-05-07T16:00:37;24.60;2.10
1021;DHT22;499;42.648;23.270;2023-05-07T16:03:07;24.10;2.70
1021;DHT22;499;42.648;23.270;2023-05-07T16:05:34;23.60;3.40
1021;DHT22;499;42.648;23.270;2023-05-07T16:08:01;23.30;3.40
1021;DHT22;499;42.648;23.270;2023-05-07T16:10:29;23.10;3.60
1021;DHT22;499;42.648;23.270;2023-05-07T16:12:56;22.90;4.10
1021;DHT22;499;42.648;23.270;2023-05-07T16:15:23;22.40;6.00
1021;DHT22;499;42.648;23.270;2023-05-07T16:17:50;22.20;6.80
1021;DHT22;499;42.648;23.270;2023-05-07T16:20:26;22.00;7.20